»·PEaware :: UAL1399 KFAT-KSFO

UAL1399 :: KFAT-KSFO

FLIGHT INFORMATION

Flight Status: Arrived
Operator:
United Airlines
More flights by this operator :: More flights under this callsign
Pilot: David C. (16084)
Aircraft: EMBRAER EMB-170/175
(E170)
More flights by this aircraft type
Origin: KFAT Fresno Yosemite Intl
United States
Destination: KSFO San Francisco Intl
United States
More flights between these airports :: More routes between these airports
Route: CZQ ALWYS CEDES ARCHI
File this flight plan on PilotEdge
Remarks:
Altitude:
(Current/Filed)
20,000ft
Speed:
(Current/Filed)
360kts
Departed: 11-Jan-18 06:57 PM
Arrived: 11-Jan-18 07:33 PM
Distance/Time
Traveled:
137nm/0:36
Distance/Time
To Go:
Arrived

Flight Plot

Page will automatically refresh every two minutes.

Flight plan parsing failed; only flown route is shown


Map Options




Map Legend


Flown Route
Filed Route
Departure Airport
Arrival Airport
Navaid (VOR, NDB)
Fix

Horizontal Profiles

Position Reports

Time Latitude Longitude Heading Altitude Ground
Speed
11-Jan-18 18:36 36.771003 -119.718241 313 342ft 0kts
11-Jan-18 18:37 36.771003 -119.718241 313 342ft 0kts
11-Jan-18 18:38 36.771003 -119.718241 313 342ft 0kts
11-Jan-18 18:39 36.771003 -119.718241 313 342ft 0kts
11-Jan-18 18:40 36.771003 -119.718241 313 342ft 0kts
11-Jan-18 18:41 36.771003 -119.718241 313 342ft 0kts
11-Jan-18 18:42 36.771003 -119.718241 313 342ft 0kts
11-Jan-18 18:43 36.771003 -119.718241 313 342ft 0kts
11-Jan-18 18:44 36.771003 -119.718241 313 342ft 0kts
11-Jan-18 18:45 36.771003 -119.718241 313 342ft 0kts
11-Jan-18 18:46 36.771003 -119.718241 313 342ft 0kts
11-Jan-18 18:47 36.771003 -119.718241 313 342ft 0kts
11-Jan-18 18:48 36.771003 -119.718241 313 342ft 0kts
11-Jan-18 18:49 36.771003 -119.718241 313 342ft 0kts
11-Jan-18 18:50 36.771003 -119.718241 313 342ft 0kts
11-Jan-18 18:51 36.771003 -119.718241 313 342ft 0kts
11-Jan-18 18:52 36.771003 -119.718241 313 342ft 0kts
11-Jan-18 18:53 36.770727 -119.717995 355 342ft 2kts
11-Jan-18 18:54 36.770556 -119.718052 36 342ft 0kts
11-Jan-18 18:55 36.770556 -119.718052 36 342ft 0kts
11-Jan-18 18:56 36.770556 -119.718052 36 342ft 0kts
11-Jan-18 18:57 36.770556 -119.718052 36 342ft 0kts
11-Jan-18 18:58 36.770836 -119.717678 51 342ft 11kts
11-Jan-18 18:59 36.770054 -119.712158 124 342ft 23kts
11-Jan-18 19:00 36.769947 -119.711161 51 342ft 0kts
11-Jan-18 19:01 36.769947 -119.711161 51 342ft 0kts
11-Jan-18 19:02 36.769952 -119.711152 51 342ft 1kts
11-Jan-18 19:03 36.772166 -119.713449 305 342ft 76kts
11-Jan-18 19:04 36.806355 -119.757792 336 2308ft 227kts
11-Jan-18 19:05 36.861170 -119.795972 323 5664ft 230kts
11-Jan-18 19:06 36.907003 -119.850356 308 8665ft 231kts
11-Jan-18 19:07 36.948343 -119.911729 308 11365ft 234kts
11-Jan-18 19:08 36.990369 -119.974827 307 15185ft 241kts
11-Jan-18 19:09 37.033419 -120.039778 306 18581ft 249kts
11-Jan-18 19:10 37.080006 -120.110473 305 20372ft 315kts
11-Jan-18 19:11 37.142390 -120.205057 305 20344ft 359kts
11-Jan-18 19:12 37.205789 -120.301515 305 20339ft 359kts
11-Jan-18 19:13 37.269117 -120.398147 305 20335ft 358kts
11-Jan-18 19:14 37.332396 -120.494982 305 20333ft 359kts
11-Jan-18 19:15 37.395549 -120.591932 305 20331ft 359kts
11-Jan-18 19:16 37.458219 -120.688379 305 20340ft 358kts
11-Jan-18 19:17 37.521129 -120.785508 305 20335ft 359kts
11-Jan-18 19:18 37.583977 -120.882821 305 20330ft 359kts
11-Jan-18 19:19 37.623558 -120.991049 272 19159ft 329kts
11-Jan-18 19:20 37.615119 -121.105826 263 17772ft 328kts
11-Jan-18 19:21 37.601659 -121.218119 262 16356ft 321kts
11-Jan-18 19:22 37.587968 -121.328671 263 15018ft 314kts
11-Jan-18 19:23 37.574341 -121.437713 262 14975ft 317kts
11-Jan-18 19:24 37.561378 -121.540414 263 11314ft 263kts
11-Jan-18 19:25 37.549691 -121.626514 257 9974ft 252kts
11-Jan-18 19:26 37.529388 -121.710560 254 9256ft 250kts
11-Jan-18 19:27 37.507931 -121.786444 254 7976ft 206kts
11-Jan-18 19:28 37.488648 -121.854357 254 7973ft 207kts
11-Jan-18 19:29 37.471040 -121.920259 258 6124ft 183kts
11-Jan-18 19:30 37.461327 -121.974758 272 5892ft 159kts
11-Jan-18 19:31 37.471769 -122.027635 298 4340ft 166kts
11-Jan-18 19:32 37.492132 -122.075341 299 3991ft 155kts
11-Jan-18 19:33 37.512644 -122.123632 298 3989ft 156kts
11-Jan-18 19:34 37.532915 -122.171507 298 3302ft 156kts
11-Jan-18 19:35 37.553468 -122.220146 298 2470ft 157kts
11-Jan-18 19:36 37.573037 -122.266534 298 1660ft 156kts
11-Jan-18 19:37 37.591845 -122.311169 297 877ft 131kts
11-Jan-18 19:38 37.609015 -122.351975 297 179ft 131kts
11-Jan-18 19:39 37.618912 -122.376117 280 20ft 17kts
11-Jan-18 19:40 37.618948 -122.377977 266 20ft 0kts
11-Jan-18 19:41 37.619130 -122.380725 295 20ft 20kts
11-Jan-18 19:42 37.619758 -122.383995 216 20ft 0kts
11-Jan-18 19:43 37.619725 -122.384027 216 20ft 0kts

Navigation Log

Ident Type
Flight plan parsing failed, navigation log unavailable